sensor_id;sensor_type;location;lat;lon;timestamp;pressure;altitude;pressure_sealevel;temperature;humidity
29879;BME280;16752;53.364;-1.488;2023-02-20T00:04:59;100932.06;;;16.36;46.87
29879;BME280;16752;53.364;-1.488;2023-02-20T00:07:36;100929.28;;;16.37;47.57
29879;BME280;16752;53.364;-1.488;2023-02-20T00:10:05;100929.94;;;16.73;47.03
29879;BME280;16752;53.364;-1.488;2023-02-20T00:12:30;100928.47;;;17.01;46.04
29879;BME280;16752;53.364;-1.488;2023-02-20T00:15:40;100930.34;;;17.10;45.57
29879;BME280;16752;53.364;-1.488;2023-02-20T00:18:07;100918.69;;;17.94;43.88
29879;BME280;16752;53.364;-1.488;2023-02-20T00:20:33;100924.22;;;17.82;43.74
29879;BME280;16752;53.364;-1.488;2023-02-20T00:23:00;100922.38;;;17.31;45.43
29879;BME280;16752;53.364;-1.488;2023-02-20T00:25:29;100919.59;;;17.53;45.02
29879;BME280;16752;53.364;-1.488;2023-02-20T00:27:54;100923.84;;;18.65;41.98
29879;BME280;16752;53.364;-1.488;2023-02-20T00:30:29;100909.41;;;18.29;42.90
29879;BME280;16752;53.364;-1.488;2023-02-20T00:32:59;100910.47;;;18.67;42.08
29879;BME280;16752;53.364;-1.488;2023-02-20T00:35:31;100907.72;;;17.78;43.89
29879;BME280;16752;53.364;-1.488;2023-02-20T00:40:51;100907.84;;;18.07;43.84
29879;BME280;16752;53.364;-1.488;2023-02-20T00:43:20;100912.56;;;17.42;45.22
29879;BME280;16752;53.364;-1.488;2023-02-20T00:46:02;100908.06;;;16.71;46.57
29879;BME280;16752;53.364;-1.488;2023-02-20T00:48:33;100906.94;;;17.57;45.29
29879;BME280;16752;53.364;-1.488;2023-02-20T00:51:10;100905.78;;;17.50;45.23
29879;BME280;16752;53.364;-1.488;2023-02-20T00:53:52;100908.81;;;16.50;47.47
29879;BME280;16752;53.364;-1.488;2023-02-20T00:56:18;100897.06;;;17.59;45.36
29879;BME280;16752;53.364;-1.488;2023-02-20T01:07:45;100893.94;;;18.44;43.35
29879;BME280;16752;53.364;-1.488;2023-02-20T01:13:30;100879.97;;;18.51;43.06
29879;BME280;16752;53.364;-1.488;2023-02-20T01:19:42;100884.97;;;17.45;45.85
29879;BME280;16752;53.364;-1.488;2023-02-20T07:16:54;100729.13;;;18.76;41.97
29879;BME280;16752;53.364;-1.488;2023-02-20T07:19:55;100740.97;;;18.81;42.25
29879;BME280;16752;53.364;-1.488;2023-02-20T07:22:56;100735.72;;;19.64;40.16
29879;BME280;16752;53.364;-1.488;2023-02-20T07:25:33;100725.63;;;19.67;40.33
29879;BME280;16752;53.364;-1.488;2023-02-20T07:27:58;100729.13;;;18.76;42.31
29879;BME280;16752;53.364;-1.488;2023-02-20T07:30:23;100741.47;;;19.04;41.83
29879;BME280;16752;53.364;-1.488;2023-02-20T07:32:50;100730.13;;;19.39;40.86
29879;BME280;16752;53.364;-1.488;2023-02-20T07:35:15;100681.53;;;19.47;39.84
29879;BME280;16752;53.364;-1.488;2023-02-20T07:37:41;100739.13;;;18.06;43.67
29879;BME280;16752;53.364;-1.488;2023-02-20T07:40:18;100722.47;;;18.43;43.54
29879;BME280;16752;53.364;-1.488;2023-02-20T07:42:46;100736.22;;;19.22;41.17
29879;BME280;16752;53.364;-1.488;2023-02-20T07:45:17;100737.78;;;19.70;40.08
29879;BME280;16752;53.364;-1.488;2023-02-20T07:47:45;100737.28;;;19.29;41.28
29879;BME280;16752;53.364;-1.488;2023-02-20T07:50:21;100749.63;;;17.08;46.41
29879;BME280;16752;53.364;-1.488;2023-02-20T08:04:09;100751.78;;;18.70;43.10
29879;BME280;16752;53.364;-1.488;2023-02-20T08:07:53;100756.41;;;18.49;43.56
29879;BME280;16752;53.364;-1.488;2023-02-20T08:16:09;100756.84;;;18.15;44.47
29879;BME280;16752;53.364;-1.488;2023-02-20T08:25:12;100746.06;;;18.55;43.93
29879;BME280;16752;53.364;-1.488;2023-02-20T08:30:39;100760.34;;;18.25;44.58
29879;BME280;16752;53.364;-1.488;2023-02-20T08:36:37;100781.38;;;19.59;41.59
29879;BME280;16752;53.364;-1.488;2023-02-20T08:45:51;100783.25;;;17.57;46.40
29879;BME280;16752;53.364;-1.488;2023-02-20T09:28:55;100805.28;;;18.46;45.32
29879;BME280;16752;53.364;-1.488;2023-02-20T09:31:23;100797.00;;;19.25;44.02
29879;BME280;16752;53.364;-1.488;2023-02-20T09:33:50;100791.75;;;18.69;45.55
29879;BME280;16752;53.364;-1.488;2023-02-20T09:40:05;100796.66;;;19.10;44.85
29879;BME280;16752;53.364;-1.488;2023-02-20T09:55:54;100801.16;;;19.37;44.05
29879;BME280;16752;53.364;-1.488;2023-02-20T10:05:06;100797.19;;;18.67;45.66
29879;BME280;16752;53.364;-1.488;2023-02-20T11:47:18;100796.38;;;20.13;43.15
29879;BME280;16752;53.364;-1.488;2023-02-20T16:58:03;100761.56;;;20.86;39.76
29879;BME280;16752;53.364;-1.488;2023-02-20T17:06:58;100751.31;;;20.48;40.63
29879;BME280;16752;53.364;-1.488;2023-02-20T17:09:49;100749.63;;;20.72;39.85
29879;BME280;16752;53.364;-1.488;2023-02-20T17:12:16;100745.56;;;21.20;38.83
29879;BME280;16752;53.364;-1.488;2023-02-20T17:14:45;100743.41;;;20.02;40.88
29879;BME280;16752;53.364;-1.488;2023-02-20T17:17:24;100734.97;;;21.02;38.99
29879;BME280;16752;53.364;-1.488;2023-02-20T17:19:49;100739.31;;;19.90;41.29
29879;BME280;16752;53.364;-1.488;2023-02-20T17:22:22;100739.09;;;20.19;40.83
29879;BME280;16752;53.364;-1.488;2023-02-20T17:24:52;100739.75;;;19.40;42.11
29879;BME280;16752;53.364;-1.488;2023-02-20T17:27:17;100743.94;;;20.24;40.23
29879;BME280;16752;53.364;-1.488;2023-02-20T17:33:33;100730.56;;;21.19;38.13
29879;BME280;16752;53.364;-1.488;2023-02-20T17:39:31;100728.69;;;20.78;39.21
29879;BME280;16752;53.364;-1.488;2023-02-20T17:42:38;100731.78;;;20.21;40.02
29879;BME280;16752;53.364;-1.488;2023-02-20T17:45:02;100733.34;;;20.75;39.10
29879;BME280;16752;53.364;-1.488;2023-02-20T17:47:28;100730.53;;;20.33;40.08
29879;BME280;16752;53.364;-1.488;2023-02-20T17:49:57;100729.09;;;20.39;39.65
29879;BME280;16752;53.364;-1.488;2023-02-20T17:55:51;100663.63;;;19.04;41.57
29879;BME280;16752;53.364;-1.488;2023-02-20T17:58:18;100746.97;;;19.58;41.83
29879;BME280;16752;53.364;-1.488;2023-02-20T18:00:43;100737.63;;;20.68;39.35
29879;BME280;16752;53.364;-1.488;2023-02-20T18:03:27;100743.00;;;19.62;41.64
29879;BME280;16752;53.364;-1.488;2023-02-20T18:05:59;100737.16;;;20.29;40.27
29879;BME280;16752;53.364;-1.488;2023-02-20T18:08:25;100734.97;;;19.89;41.27
29879;BME280;16752;53.364;-1.488;2023-02-20T18:10:53;100743.72;;;20.17;40.43
29879;BME280;16752;53.364;-1.488;2023-02-20T18:13:18;100747.59;;;19.87;40.64
29879;BME280;16752;53.364;-1.488;2023-02-20T18:15:44;100741.28;;;20.41;39.81
29879;BME280;16752;53.364;-1.488;2023-02-20T18:18:10;100760.13;;;20.30;39.92
29879;BME280;16752;53.364;-1.488;2023-02-20T18:20:36;100749.31;;;20.75;38.98
29879;BME280;16752;53.364;-1.488;2023-02-20T18:23:01;100756.16;;;20.52;39.63
29879;BME280;16752;53.364;-1.488;2023-02-20T18:25:32;100757.19;;;20.59;39.08
29879;BME280;16752;53.364;-1.488;2023-02-20T18:28:00;100750.16;;;20.50;39.60
29879;BME280;16752;53.364;-1.488;2023-02-20T18:30:36;100754.44;;;20.25;39.88
29879;BME280;16752;53.364;-1.488;2023-02-20T18:33:04;100752.81;;;20.14;40.42
29879;BME280;16752;53.364;-1.488;2023-02-20T18:35:30;100745.97;;;19.31;42.11
29879;BME280;16752;53.364;-1.488;2023-02-20T18:37:57;100742.81;;;20.44;39.63
29879;BME280;16752;53.364;-1.488;2023-02-20T18:40:25;100746.44;;;20.25;39.60
29879;BME280;16752;53.364;-1.488;2023-02-20T18:42:50;100751.25;;;20.22;40.10
29879;BME280;16752;53.364;-1.488;2023-02-20T18:45:19;100735.09;;;20.93;38.72
29879;BME280;16752;53.364;-1.488;2023-02-20T18:47:50;100743.09;;;19.88;40.81
29879;BME280;16752;53.364;-1.488;2023-02-20T18:50:16;100742.34;;;20.13;40.23
29879;BME280;16752;53.364;-1.488;2023-02-20T18:52:45;100737.72;;;20.59;39.18
29879;BME280;16752;53.364;-1.488;2023-02-20T18:55:11;100745.91;;;19.41;41.25
29879;BME280;16752;53.364;-1.488;2023-02-20T18:58:06;100742.94;;;19.89;40.72
29879;BME280;16752;53.364;-1.488;2023-02-20T19:00:34;100745.91;;;19.86;40.58
29879;BME280;16752;53.364;-1.488;2023-02-20T19:03:09;100747.13;;;20.45;39.41
29879;BME280;16752;53.364;-1.488;2023-02-20T19:05:37;100744.22;;;20.82;38.40
29879;BME280;16752;53.364;-1.488;2023-02-20T19:08:04;100752.41;;;20.89;38.29
29879;BME280;16752;53.364;-1.488;2023-02-20T19:10:49;100745.44;;;20.96;38.23
29879;BME280;16752;53.364;-1.488;2023-02-20T19:13:15;100747.13;;;19.92;40.58
29879;BME280;16752;53.364;-1.488;2023-02-20T19:15:40;100748.44;;;20.41;39.09
29879;BME280;16752;53.364;-1.488;2023-02-20T19:18:06;100750.31;;;19.22;41.86
29879;BME280;16752;53.364;-1.488;2023-02-20T19:20:31;100754.66;;;19.23;41.78
29879;BME280;16752;53.364;-1.488;2023-02-20T19:22:57;100752.28;;;20.29;39.86
29879;BME280;16752;53.364;-1.488;2023-02-20T19:25:23;100754.47;;;20.33;39.59
29879;BME280;16752;53.364;-1.488;2023-02-20T19:27:48;100749.78;;;20.71;39.16
29879;BME280;16752;53.364;-1.488;2023-02-20T19:30:14;100752.09;;;20.92;38.32
29879;BME280;16752;53.364;-1.488;2023-02-20T19:32:40;100747.81;;;20.47;39.61
29879;BME280;16752;53.364;-1.488;2023-02-20T19:35:05;100749.56;;;20.21;39.86
29879;BME280;16752;53.364;-1.488;2023-02-20T19:37:33;100746.03;;;20.38;39.53
29879;BME280;16752;53.364;-1.488;2023-02-20T19:40:01;100746.34;;;19.64;40.80
29879;BME280;16752;53.364;-1.488;2023-02-20T19:42:27;100745.34;;;20.54;39.32
29879;BME280;16752;53.364;-1.488;2023-02-20T19:44:52;100745.78;;;20.41;39.42
29879;BME280;16752;53.364;-1.488;2023-02-20T19:47:19;100744.28;;;20.64;38.72
29879;BME280;16752;53.364;-1.488;2023-02-20T19:49:45;100753.28;;;20.28;39.83
29879;BME280;16752;53.364;-1.488;2023-02-20T19:52:13;100745.22;;;19.66;41.02
29879;BME280;16752;53.364;-1.488;2023-02-20T19:54:45;100746.34;;;19.09;42.43
29879;BME280;16752;53.364;-1.488;2023-02-20T19:57:11;100748.72;;;19.84;40.51
29879;BME280;16752;53.364;-1.488;2023-02-20T19:59:36;100744.66;;;19.08;42.33
29879;BME280;16752;53.364;-1.488;2023-02-20T20:02:02;100746.16;;;19.20;41.87
29879;BME280;16752;53.364;-1.488;2023-02-20T20:04:28;100745.38;;;19.10;42.14
29879;BME280;16752;53.364;-1.488;2023-02-20T20:06:54;100733.75;;;19.11;41.60
29879;BME280;16752;53.364;-1.488;2023-02-20T20:09:21;100736.66;;;20.08;40.03
29879;BME280;16752;53.364;-1.488;2023-02-20T20:11:47;100740.69;;;18.94;41.94
29879;BME280;16752;53.364;-1.488;2023-02-20T20:14:12;100735.44;;;19.84;40.45
29879;BME280;16752;53.364;-1.488;2023-02-20T20:16:40;100739.09;;;20.01;40.12
29879;BME280;16752;53.364;-1.488;2023-02-20T20:19:07;100737.09;;;20.21;39.66
29879;BME280;16752;53.364;-1.488;2023-02-20T20:21:36;100738.31;;;19.91;40.28
29879;BME280;16752;53.364;-1.488;2023-02-20T20:24:03;100728.16;;;19.14;42.14
29879;BME280;16752;53.364;-1.488;2023-02-20T20:26:29;100725.88;;;19.19;41.70
29879;BME280;16752;53.364;-1.488;2023-02-20T20:28:55;100721.63;;;18.52;43.41
29879;BME280;16752;53.364;-1.488;2023-02-20T20:31:21;100720.63;;;19.09;42.19
29879;BME280;16752;53.364;-1.488;2023-02-20T20:34:08;100719.09;;;19.34;41.89
29879;BME280;16752;53.364;-1.488;2023-02-20T20:39:21;100723.97;;;19.11;42.43
29879;BME280;16752;53.364;-1.488;2023-02-20T20:41:46;100726.22;;;18.69;43.16
29879;BME280;16752;53.364;-1.488;2023-02-20T20:44:12;100727.03;;;19.07;42.60
29879;BME280;16752;53.364;-1.488;2023-02-20T20:46:37;100727.09;;;18.31;43.66
29879;BME280;16752;53.364;-1.488;2023-02-20T20:49:05;100731.88;;;18.84;42.97
29879;BME280;16752;53.364;-1.488;2023-02-20T20:51:31;100732.22;;;18.71;43.11
29879;BME280;16752;53.364;-1.488;2023-02-20T20:53:56;100726.31;;;19.69;40.86
29879;BME280;16752;53.364;-1.488;2023-02-20T20:56:22;100726.41;;;18.19;44.03
29879;BME280;16752;53.364;-1.488;2023-02-20T20:58:47;100731.72;;;19.50;41.44
29879;BME280;16752;53.364;-1.488;2023-02-20T21:01:15;100726.38;;;19.32;41.48
29879;BME280;16752;53.364;-1.488;2023-02-20T21:03:40;100721.09;;;19.22;41.93
29879;BME280;16752;53.364;-1.488;2023-02-20T21:06:05;100719.59;;;18.92;42.52
29879;BME280;16752;53.364;-1.488;2023-02-20T21:08:31;100719.69;;;19.28;41.70
29879;BME280;16752;53.364;-1.488;2023-02-20T21:10:57;100717.00;;;18.54;43.40
29879;BME280;16752;53.364;-1.488;2023-02-20T21:13:23;100710.56;;;18.76;42.89
29879;BME280;16752;53.364;-1.488;2023-02-20T21:15:48;100718.28;;;17.13;46.59
29879;BME280;16752;53.364;-1.488;2023-02-20T21:18:13;100707.84;;;18.95;42.27
29879;BME280;16752;53.364;-1.488;2023-02-20T21:20:39;100717.38;;;19.15;41.64
29879;BME280;16752;53.364;-1.488;2023-02-20T21:23:04;100712.53;;;18.64;43.02
29879;BME280;16752;53.364;-1.488;2023-02-20T21:25:30;100706.19;;;18.18;43.62
29879;BME280;16752;53.364;-1.488;2023-02-20T21:27:56;100709.41;;;18.02;44.07
29879;BME280;16752;53.364;-1.488;2023-02-20T21:30:22;100717.09;;;18.81;42.41
29879;BME280;16752;53.364;-1.488;2023-02-20T21:32:54;100718.47;;;17.90;44.49
29879;BME280;16752;53.364;-1.488;2023-02-20T21:35:20;100722.56;;;19.07;41.86
29879;BME280;16752;53.364;-1.488;2023-02-20T21:37:48;100724.44;;;17.63;44.94
29879;BME280;16752;53.364;-1.488;2023-02-20T21:40:17;100722.47;;;17.65;45.07
29879;BME280;16752;53.364;-1.488;2023-02-20T21:42:43;100728.09;;;19.23;41.40
29879;BME280;16752;53.364;-1.488;2023-02-20T21:45:26;100721.00;;;19.69;40.46
29879;BME280;16752;53.364;-1.488;2023-02-20T21:47:52;100710.59;;;18.66;42.70
29879;BME280;16752;53.364;-1.488;2023-02-20T21:50:17;100706.75;;;18.12;44.51
29879;BME280;16752;53.364;-1.488;2023-02-20T21:52:46;100712.19;;;17.91;44.36
29879;BME280;16752;53.364;-1.488;2023-02-20T21:55:12;100710.88;;;18.63;42.99
29879;BME280;16752;53.364;-1.488;2023-02-20T21:57:38;100711.22;;;18.12;43.94
29879;BME280;16752;53.364;-1.488;2023-02-20T22:00:04;100717.78;;;18.83;42.63
29879;BME280;16752;53.364;-1.488;2023-02-20T22:02:33;100715.56;;;19.16;41.70
29879;BME280;16752;53.364;-1.488;2023-02-20T22:04:58;100710.94;;;18.90;42.56
29879;BME280;16752;53.364;-1.488;2023-02-20T22:07:26;100721.75;;;18.70;42.95
29879;BME280;16752;53.364;-1.488;2023-02-20T22:10:10;100713.28;;;18.93;42.58
29879;BME280;16752;53.364;-1.488;2023-02-20T22:15:48;100718.88;;;18.24;43.57
29879;BME280;16752;53.364;-1.488;2023-02-20T22:18:32;100715.97;;;18.08;43.72
29879;BME280;16752;53.364;-1.488;2023-02-20T22:21:19;100703.34;;;18.68;42.63
29879;BME280;16752;53.364;-1.488;2023-02-20T22:24:07;100715.81;;;18.85;42.50
29879;BME280;16752;53.364;-1.488;2023-02-20T22:36:23;100725.09;;;18.62;42.90
29879;BME280;16752;53.364;-1.488;2023-02-20T22:39:22;100722.44;;;18.62;42.90
29879;BME280;16752;53.364;-1.488;2023-02-20T22:42:12;100726.53;;;19.31;41.10
29879;BME280;16752;53.364;-1.488;2023-02-20T22:45:01;100710.44;;;19.05;41.70
29879;BME280;16752;53.364;-1.488;2023-02-20T22:48:03;100722.06;;;19.31;40.95
29879;BME280;16752;53.364;-1.488;2023-02-20T22:51:10;100716.44;;;19.34;41.22
29879;BME280;16752;53.364;-1.488;2023-02-20T22:57:14;100709.44;;;19.61;40.61
29879;BME280;16752;53.364;-1.488;2023-02-20T23:03:23;100706.94;;;19.04;41.81
29879;BME280;16752;53.364;-1.488;2023-02-20T23:06:16;100700.28;;;19.45;40.86
29879;BME280;16752;53.364;-1.488;2023-02-20T23:09:26;100700.41;;;19.26;41.29
29879;BME280;16752;53.364;-1.488;2023-02-20T23:15:33;100685.47;;;18.98;41.98
29879;BME280;16752;53.364;-1.488;2023-02-20T23:18:29;100681.13;;;18.69;42.20
29879;BME280;16752;53.364;-1.488;2023-02-20T23:21:30;100674.47;;;18.46;42.92
29879;BME280;16752;53.364;-1.488;2023-02-20T23:24:48;100680.22;;;18.78;42.21
29879;BME280;16752;53.364;-1.488;2023-02-20T23:31:04;100670.31;;;18.24;43.35
29879;BME280;16752;53.364;-1.488;2023-02-20T23:34:00;100675.47;;;18.82;42.10
29879;BME280;16752;53.364;-1.488;2023-02-20T23:36:45;100669.34;;;18.62;42.14
29879;BME280;16752;53.364;-1.488;2023-02-20T23:39:37;100663.53;;;17.83;43.97
29879;BME280;16752;53.364;-1.488;2023-02-20T23:42:22;100679.16;;;18.99;41.57
29879;BME280;16752;53.364;-1.488;2023-02-20T23:45:06;100680.56;;;18.56;42.48
29879;BME280;16752;53.364;-1.488;2023-02-20T23:51:14;100683.06;;;18.57;42.61
29879;BME280;16752;53.364;-1.488;2023-02-20T23:54:27;100680.25;;;18.22;43.49
